| time (UTC) | temp C | wind direction | speed KPH | gust KPH | rain 1hr cm | rain 24hr cm | rain mn cm | humidity % | barometer mb |
| 20260505171543 | 15 | 21 | 1.6 | 4.8 | 0.00 | 0.00 | 0.00 | 44 | 1012.1 |
| 20260505171034 | 15 | 68 | 1.6 | 6.4 | 0.00 | 0.00 | 0.00 | 46 | 1012.3 |
| 20260505170531 | 15 | 6 | 3.2 | 6.4 | 0.00 | 0.00 | 0.00 | 45 | 1012.3 |
| 20260505170042 | 15 | 198 | 1.6 | 6.4 | 0.00 | 0.00 | 0.00 | 45 | 1012.7 |
| 20260505165531 | 15 | 273 | 1.6 | 6.4 | 0.00 | 0.00 | 0.00 | 45 | 1012.7 |
| 20260505165031 | 15 | 26 | 3.2 | 8.0 | 0.00 | 0.00 | 0.00 | 45 | 1012.5 |
| 20260505164558 | 14 | 51 | 3.2 | 8.0 | 0.00 | 0.00 | 0.00 | 47 | 1012.3 |
| 20260505164031 | 13 | 264 | 4.8 | 9.7 | 0.00 | 0.00 | 0.00 | 47 | 1012.3 |
| 20260505163531 | 13 | 13 | 4.8 | 11.3 | 0.00 | 0.00 | 0.00 | 49 | 1012.6 |
| 20260505163051 | 13 | 24 | 4.8 | 14.5 | 0.00 | 0.00 | 0.00 | 48 | 1012.7 |
| 20260505162535 | 13 | 60 | 6.4 | 14.5 | 0.00 | 0.00 | 0.00 | 49 | 1012.5 |
| 20260505162032 | 13 | 302 | 4.8 | 14.5 | 0.00 | 0.00 | 0.00 | 49 | 1012.5 |
| 20260505161544 | 12 | 262 | 6.4 | 16.1 | 0.00 | 0.00 | 0.00 | 50 | 1012.5 |
| 20260505161033 | 12 | 314 | 4.8 | 16.1 | 0.00 | 0.00 | 0.00 | 51 | 1012.7 |
| 20260505160533 | 12 | 326 | 4.8 | 16.1 | 0.00 | 0.00 | 0.00 | 52 | 1012.9 |
| 20260505153104 | 12 | 266 | 4.8 | 16.1 | 0.00 | 0.00 | 0.00 | 53 | 1013.2 |
| 20260505152531 | 12 | 285 | 8.0 | 17.7 | 0.00 | 0.00 | 0.00 | 54 | 1013.3 |
| 20260505152033 | 12 | 312 | 6.4 | 17.7 | 0.00 | 0.00 | 0.00 | 56 | 1013.4 |
| 20260505151553 | 12 | 283 | 8.0 | 17.7 | 0.00 | 0.00 | 0.00 | 58 | 1013.3 |
| 20260505151031 | 12 | 11 | 8.0 | 17.7 | 0.00 | 0.00 | 0.00 | 59 | 1013.3 |
| 20260505150531 | 12 | 269 | 6.4 | 17.7 | 0.00 | 0.00 | 0.00 | 59 | 1013.2 |
| 20260505140536 | 12 | 333 | 4.8 | 14.5 | 0.00 | 0.00 | 0.00 | 63 | 1013.4 |
| 20260505125030 | 13 | 0 | 0.0 | 1.6 | 0.00 | 0.00 | 0.00 | 39 | 1012.3 |
| 20260505124543 | 13 | 0 | 0.0 | 4.8 | 0.00 | 0.00 | 0.00 | 39 | 1012.2 |
| 20260505124034 | 13 | 285 | 0.0 | 4.8 | 0.00 | 0.00 | 0.00 | 39 | 1012.4 |
| 20260505123535 | 13 | 266 | 1.6 | 3.2 | 0.00 | 0.00 | 0.00 | 39 | 1012.4 |
| 20260505123103 | 13 | 0 | 0.0 | 3.2 | 0.00 | 0.00 | 0.00 | 39 | 1012.4 |
| 20260505122537 | 13 | 0 | 0.0 | 3.2 | 0.00 | 0.00 | 0.00 | 39 | 1012.5 |
| 20260505122034 | 13 | 0 | 0.0 | 3.2 | 0.00 | 0.00 | 0.00 | 39 | 1012.3 |
| 20260505121547 | 13 | 269 | 0.0 | 1.6 | 0.00 | 0.00 | 0.00 | 38 | 1012.3 |
| 20260505121034 | 14 | 0 | 0.0 | 1.6 | 0.00 | 0.00 | 0.00 | 38 | 1012.3 |
| 20260505120534 | 14 | 278 | 0.0 | 4.8 | 0.00 | 0.00 | 0.00 | 38 | 1012.3 |
| 20260505120046 | 14 | 289 | 1.6 | 4.8 | 0.00 | 0.00 | 0.00 | 38 | 1012.3 |
| 20260505115534 | 13 | 297 | 1.6 | 6.4 | 0.00 | 0.00 | 0.00 | 38 | 1012.1 |
| 20260505115035 | 13 | 290 | 1.6 | 6.4 | 0.00 | 0.00 | 0.00 | 38 | 1012.2 |
| 20260505114545 | 13 | 259 | 1.6 | 4.8 | 0.00 | 0.00 | 0.00 | 38 | 1012.3 |
| 20260505114035 | 13 | 0 | 0.0 | 3.2 | 0.00 | 0.00 | 0.00 | 38 | 1012.2 |
| 20260505113534 | 13 | 224 | 0.0 | 1.6 | 0.00 | 0.00 | 0.00 | 37 | 1012.1 |
| 20260505113042 | 14 | 0 | 0.0 | 1.6 | 0.00 | 0.00 | 0.00 | 37 | 1012.1 |
| 20260505112534 | 14 | 0 | 0.0 | 1.6 | 0.00 | 0.00 | 0.00 | 36 | 1012.1 |
| 20260505112031 | 14 | 297 | 0.0 | 1.6 | 0.00 | 0.00 | 0.00 | 36 | 1012.1 |
| 20260505111552 | 14 | 274 | 0.0 | 3.2 | 0.00 | 0.00 | 0.00 | 36 | 1012.0 |
| 20260505111034 | 14 | 264 | 0.0 | 3.2 | 0.00 | 0.00 | 0.00 | 36 | 1012.0 |
| 20260505110531 | 14 | 281 | 0.0 | 3.2 | 0.00 | 0.00 | 0.00 | 36 | 1012.1 |
| 20260505102034 | 14 | 222 | 0.0 | 1.6 | 0.00 | 0.00 | 0.00 | 37 | 1012.3 |
| 20260505101545 | 14 | 0 | 0.0 | 1.6 | 0.00 | 0.00 | 0.00 | 37 | 1012.2 |
| 20260505101037 | 14 | 0 | 0.0 | 0.0 | 0.00 | 0.00 | 0.00 | 36 | 1012.2 |
| 20260505100538 | 14 | 0 | 0.0 | 0.0 | 0.00 | 0.00 | 0.00 | 36 | 1012.2 |
| 20260505100051 | 14 | 0 | 0.0 | 1.6 | 0.00 | 0.00 | 0.00 | 36 | 1012.2 |
| 20260505095534 | 14 | 0 | 0.0 | 1.6 | 0.00 | 0.00 | 0.00 | 36 | 1012.2 |
| 20260505095034 | 15 | 0 | 0.0 | 1.6 | 0.00 | 0.00 | 0.00 | 35 | 1012.3 |
| 20260505094544 | 15 | 276 | 0.0 | 3.2 | 0.00 | 0.00 | 0.00 | 35 | 1012.2 |
| 20260505094033 | 15 | 280 | 0.0 | 3.2 | 0.00 | 0.00 | 0.00 | 35 | 1012.2 |
| 20260505093534 | 14 | 283 | 0.0 | 3.2 | 0.00 | 0.00 | 0.00 | 35 | 1012.1 |
| 20260505093044 | 14 | 224 | 0.0 | 1.6 | 0.00 | 0.00 | 0.00 | 35 | 1012.1 |
| 20260505092535 | 14 | 0 | 0.0 | 1.6 | 0.00 | 0.00 | 0.00 | 35 | 1012.1 |
| 20260505092034 | 14 | 0 | 0.0 | 1.6 | 0.00 | 0.00 | 0.00 | 35 | 1012.3 |
| 20260505091554 | 15 | 0 | 0.0 | 0.0 | 0.00 | 0.00 | 0.00 | 35 | 1012.4 |
| 20260505091031 | 15 | 0 | 0.0 | 0.0 | 0.00 | 0.00 | 0.00 | 34 | 1012.3 |
| 20260505090533 | 15 | 0 | 0.0 | 0.0 | 0.00 | 0.00 | 0.00 | 33 | 1012.3 |
| 20260505090054 | 15 | 0 | 0.0 | 1.6 | 0.00 | 0.00 | 0.00 | 32 | 1012.3 |
| 20260505085534 | 15 | 0 | 0.0 | 3.2 | 0.00 | 0.00 | 0.00 | 32 | 1012.5 |
| 20260505085034 | 16 | 354 | 0.0 | 8.0 | 0.00 | 0.00 | 0.00 | 31 | 1012.5 |
| 20260505084543 | 16 | 290 | 0.0 | 8.0 | 0.00 | 0.00 | 0.00 | 31 | 1012.5 |
| 20260505084034 | 16 | 274 | 3.2 | 8.0 | 0.00 | 0.00 | 0.00 | 31 | 1012.5 |
| 20260505083534 | 16 | 274 | 1.6 | 8.0 | 0.00 | 0.00 | 0.00 | 31 | 1012.5 |
| 20260505083054 | 16 | 285 | 1.6 | 6.4 | 0.00 | 0.00 | 0.00 | 32 | 1012.5 |
| 20260505082534 | 16 | 254 | 1.6 | 9.7 | 0.00 | 0.00 | 0.00 | 32 | 1012.6 |
| 20260505082034 | 16 | 293 | 3.2 | 9.7 | 0.00 | 0.00 | 0.00 | 32 | 1012.7 |
| 20260505081557 | 16 | 250 | 4.8 | 12.9 | 0.00 | 0.00 | 0.00 | 32 | 1012.8 |
| 20260505081034 | 16 | 283 | 4.8 | 12.9 | 0.00 | 0.00 | 0.00 | 32 | 1012.8 |
| 20260505080534 | 16 | 257 | 6.4 | 12.9 | 0.00 | 0.00 | 0.00 | 31 | 1013.0 |
| 20260505080048 | 16 | 255 | 3.2 | 8.0 | 0.00 | 0.00 | 0.00 | 31 | 1012.8 |
| 20260505075530 | 16 | 283 | 3.2 | 6.4 | 0.00 | 0.00 | 0.00 | 31 | 1012.9 |
| 20260505075034 | 16 | 267 | 3.2 | 11.3 | 0.00 | 0.00 | 0.00 | 30 | 1013.0 |
| 20260505074602 | 16 | 251 | 3.2 | 11.3 | 0.00 | 0.00 | 0.00 | 30 | 1012.9 |
| 20260505074034 | 16 | 290 | 4.8 | 11.3 | 0.00 | 0.00 | 0.00 | 30 | 1012.8 |
| 20260505073535 | 16 | 267 | 6.4 | 11.3 | 0.00 | 0.00 | 0.00 | 30 | 1012.8 |
| 20260505073044 | 16 | 276 | 3.2 | 9.7 | 0.00 | 0.00 | 0.00 | 30 | 1012.8 |
| 20260505072533 | 17 | 278 | 3.2 | 8.0 | 0.00 | 0.00 | 0.00 | 30 | 1012.7 |
| 20260505072033 | 17 | 250 | 3.2 | 9.7 | 0.00 | 0.00 | 0.00 | 30 | 1012.7 |
| 20260505071545 | 17 | 266 | 0.0 | 12.9 | 0.00 | 0.00 | 0.00 | 30 | 1012.8 |
| 20260505071034 | 17 | 323 | 3.2 | 12.9 | 0.00 | 0.00 | 0.00 | 29 | 1012.6 |
| 20260505070531 | 17 | 158 | 4.8 | 11.3 | 0.00 | 0.00 | 0.00 | 29 | 1012.6 |
| 20260505070048 | 17 | 250 | 4.8 | 11.3 | 0.00 | 0.00 | 0.00 | 29 | 1012.5 |
| 20260505065532 | 17 | 260 | 3.2 | 14.5 | 0.00 | 0.00 | 0.00 | 29 | 1012.3 |
| 20260505065034 | 17 | 330 | 3.2 | 16.1 | 0.00 | 0.00 | 0.00 | 28 | 1012.3 |
| 20260505064546 | 17 | 205 | 4.8 | 16.1 | 0.00 | 0.00 | 0.00 | 28 | 1012.3 |
| 20260505064034 | 17 | 143 | 6.4 | 16.1 | 0.00 | 0.00 | 0.00 | 28 | 1012.3 |
| 20260505063534 | 17 | 174 | 4.8 | 12.9 | 0.00 | 0.00 | 0.00 | 27 | 1012.2 |
| 20260505063044 | 17 | 278 | 3.2 | 12.9 | 0.00 | 0.00 | 0.00 | 27 | 1012.1 |
| 20260505062535 | 17 | 144 | 3.2 | 16.1 | 0.00 | 0.00 | 0.00 | 27 | 1012.0 |
| 20260505062035 | 17 | 233 | 3.2 | 16.1 | 0.00 | 0.00 | 0.00 | 26 | 1012.1 |
| 20260505061618 | 18 | 266 | 1.6 | 16.1 | 0.00 | 0.00 | 0.00 | 26 | 1012.1 |
| 20260505061032 | 18 | 293 | 4.8 | 16.1 | 0.00 | 0.00 | 0.00 | 26 | 1012.1 |
| 20260505060538 | 18 | 257 | 3.2 | 12.9 | 0.00 | 0.00 | 0.00 | 25 | 1012.1 |
| 20260505060052 | 18 | 321 | 4.8 | 12.9 | 0.00 | 0.00 | 0.00 | 25 | 1012.1 |
| 20260505055534 | 18 | 276 | 4.8 | 14.5 | 0.00 | 0.00 | 0.00 | 25 | 1012.0 |
| 20260505055033 | 18 | 250 | 4.8 | 14.5 | 0.00 | 0.00 | 0.00 | 25 | 1012.0 |
| 20260505054557 | 18 | 281 | 4.8 | 14.5 | 0.00 | 0.00 | 0.00 | 25 | 1012.1 |
| 20260505054037 | 18 | 274 | 3.2 | 14.5 | 0.00 | 0.00 | 0.00 | 25 | 1012.1 |
| 20260505053531 | 18 | 278 | 4.8 | 14.5 | 0.00 | 0.00 | 0.00 | 25 | 1012.1 |
| 20260505053045 | 18 | 287 | 6.4 | 11.3 | 0.00 | 0.00 | 0.00 | 25 | 1012.0 |
| 20260505052532 | 18 | 285 | 3.2 | 9.7 | 0.00 | 0.00 | 0.00 | 25 | 1012.0 |
| 20260505052034 | 18 | 285 | 3.2 | 9.7 | 0.00 | 0.00 | 0.00 | 25 | 1012.0 |
| 20260505051539 | 18 | 289 | 3.2 | 9.7 | 0.00 | 0.00 | 0.00 | 25 | 1011.8 |
| 20260505051033 | 18 | 275 | 1.6 | 8.0 | 0.00 | 0.00 | 0.00 | 25 | 1011.9 |
| 20260505050533 | 18 | 237 | 1.6 | 9.7 | 0.00 | 0.00 | 0.00 | 25 | 1011.8 |
| 20260505041542 | 19 | 325 | 0.0 | 8.0 | 0.00 | 0.00 | 0.00 | 24 | 1011.8 |
| 20260505041034 | 19 | 280 | 0.0 | 8.0 | 0.00 | 0.00 | 0.00 | 24 | 1011.7 |
| 20260505040533 | 20 | 0 | 0.0 | 6.4 | 0.00 | 0.00 | 0.00 | 24 | 1011.7 |
| 20260505040044 | 20 | 241 | 0.0 | 8.0 | 0.00 | 0.00 | 0.00 | 24 | 1011.7 |
| 20260505035537 | 20 | 0 | 1.6 | 8.0 | 0.00 | 0.00 | 0.00 | 24 | 1011.6 |
| 20260505035034 | 20 | 206 | 0.0 | 4.8 | 0.00 | 0.00 | 0.00 | 24 | 1011.7 |
| 20260505034549 | 20 | 289 | 0.0 | 4.8 | 0.00 | 0.00 | 0.00 | 24 | 1011.7 |
| 20260505034034 | 20 | 272 | 1.6 | 8.0 | 0.00 | 0.00 | 0.00 | 23 | 1011.5 |
| 20260505033535 | 20 | 281 | 3.2 | 9.7 | 0.00 | 0.00 | 0.00 | 23 | 1011.3 |
| 20260505033050 | 20 | 257 | 3.2 | 9.7 | 0.00 | 0.00 | 0.00 | 23 | 1011.3 |
| 20260505032533 | 20 | 286 | 4.8 | 14.5 | 0.00 | 0.00 | 0.00 | 23 | 1011.1 |
| 20260505032034 | 20 | 255 | 6.4 | 14.5 | 0.00 | 0.00 | 0.00 | 23 | 1011.0 |
| 20260505031542 | 20 | 275 | 6.4 | 17.7 | 0.00 | 0.00 | 0.00 | 22 | 1011.0 |
| 20260505031034 | 20 | 274 | 9.7 | 17.7 | 0.00 | 0.00 | 0.00 | 22 | 1010.9 |
| 20260505030532 | 20 | 265 | 9.7 | 19.3 | 0.00 | 0.00 | 0.00 | 22 | 1010.8 |
| 20260505030050 | 20 | 289 | 8.0 | 19.3 | 0.00 | 0.00 | 0.00 | 22 | 1010.7 |
| 20260505025535 | 21 | 287 | 9.7 | 17.7 | 0.00 | 0.00 | 0.00 | 22 | 1010.8 |
| 20260505025031 | 21 | 304 | 8.0 | 17.7 | 0.00 | 0.00 | 0.00 | 21 | 1010.7 |
| 20260505024605 | 21 | 271 | 9.7 | 20.9 | 0.00 | 0.00 | 0.00 | 21 | 1010.7 |
| 20260505024032 | 21 | 276 | 11.3 | 20.9 | 0.00 | 0.00 | 0.00 | 21 | 1010.6 |
| 20260505023535 | 21 | 297 | 6.4 | 12.9 | 0.00 | 0.00 | 0.00 | 21 | 1010.6 |
| 20260505023050 | 21 | 285 | 6.4 | 17.7 | 0.00 | 0.00 | 0.00 | 20 | 1010.5 |
| 20260505022534 | 21 | 294 | 6.4 | 17.7 | 0.00 | 0.00 | 0.00 | 20 | 1010.5 |
| 20260505022035 | 21 | 300 | 4.8 | 12.9 | 0.00 | 0.00 | 0.00 | 20 | 1010.5 |
| 20260505021602 | 21 | 289 | 4.8 | 16.1 | 0.00 | 0.00 | 0.00 | 19 | 1010.5 |
| 20260505021034 | 21 | 280 | 6.4 | 16.1 | 0.00 | 0.00 | 0.00 | 19 | 1010.4 |
| 20260505020534 | 21 | 274 | 6.4 | 14.5 | 0.00 | 0.00 | 0.00 | 19 | 1010.3 |
| 20260505020047 | 22 | 233 | 6.4 | 14.5 | 0.00 | 0.00 | 0.00 | 19 | 1010.2 |
| 20260505015535 | 22 | 285 | 4.8 | 12.9 | 0.00 | 0.00 | 0.00 | 20 | 1010.1 |
| 20260505015034 | 22 | 219 | 6.4 | 12.9 | 0.00 | 0.00 | 0.00 | 19 | 1010.1 |
| 20260505014551 | 22 | 293 | 3.2 | 12.9 | 0.00 | 0.00 | 0.00 | 19 | 1010.1 |
| 20260505014034 | 22 | 281 | 3.2 | 12.9 | 0.00 | 0.00 | 0.00 | 19 | 1010.0 |
| 20260505013538 | 22 | 313 | 4.8 | 14.5 | 0.00 | 0.00 | 0.00 | 19 | 1010.0 |
| 20260505013039 | 22 | 214 | 4.8 | 14.5 | 0.00 | 0.00 | 0.00 | 19 | 1009.9 |
| 20260505012534 | 22 | 285 | 8.0 | 14.5 | 0.00 | 0.00 | 0.00 | 19 | 1009.8 |
| 20260505012034 | 22 | 271 | 4.8 | 14.5 | 0.00 | 0.00 | 0.00 | 19 | 1009.7 |
| 20260505011553 | 22 | 235 | 6.4 | 14.5 | 0.00 | 0.00 | 0.00 | 19 | 1009.7 |
| 20260505011033 | 22 | 293 | 4.8 | 14.5 | 0.00 | 0.00 | 0.00 | 18 | 1009.7 |
| 20260505010534 | 22 | 315 | 4.8 | 12.9 | 0.00 | 0.00 | 0.00 | 18 | 1009.7 |
| 20260505010050 | 22 | 290 | 4.8 | 12.9 | 0.00 | 0.00 | 0.00 | 18 | 1009.7 |
| 20260505005535 | 23 | 270 | 4.8 | 16.1 | 0.00 | 0.00 | 0.00 | 18 | 1009.7 |
| 20260505005035 | 23 | 231 | 4.8 | 16.1 | 0.00 | 0.00 | 0.00 | 18 | 1009.8 |
| 20260505004545 | 23 | 276 | 8.0 | 20.9 | 0.00 | 0.00 | 0.00 | 17 | 1009.7 |
| 20260505004034 | 23 | 279 | 6.4 | 20.9 | 0.00 | 0.00 | 0.00 | 17 | 1009.7 |
| 20260505003535 | 23 | 325 | 6.4 | 16.1 | 0.00 | 0.00 | 0.00 | 17 | 1009.8 |
| 20260505003049 | 23 | 212 | 4.8 | 16.1 | 0.00 | 0.00 | 0.00 | 16 | 1009.8 |
| 20260505002534 | 23 | 264 | 6.4 | 19.3 | 0.00 | 0.00 | 0.00 | 16 | 1009.8 |
| 20260505002034 | 23 | 259 | 8.0 | 19.3 | 0.00 | 0.00 | 0.00 | 16 | 1009.9 |
| 20260505001543 | 23 | 288 | 9.7 | 19.3 | 0.00 | 0.00 | 0.00 | 15 | 1009.9 |
| 20260505001035 | 23 | 226 | 6.4 | 19.3 | 0.00 | 0.00 | 0.00 | 15 | 1009.9 |
| 20260505000535 | 23 | 207 | 9.7 | 19.3 | 0.00 | 0.00 | 0.00 | 14 | 1010.0 |
| 20260505000046 | 23 | 300 | 6.4 | 16.1 | 0.00 | 0.00 | 0.00 | 14 | 1009.8 |
| 20260504235535 | 23 | 148 | 4.8 | 16.1 | 0.00 | 0.00 | 0.00 | 15 | 1009.7 |
| 20260504235038 | 23 | 276 | 4.8 | 16.1 | 0.00 | 0.00 | 0.00 | 15 | 1009.9 |
| 20260504234542 | 23 | 293 | 6.4 | 17.7 | 0.00 | 0.00 | 0.00 | 14 | 1009.9 |
| 20260504234040 | 23 | 229 | 6.4 | 20.9 | 0.00 | 0.00 | 0.00 | 14 | 1009.9 |
| 20260504233533 | 23 | 309 | 6.4 | 20.9 | 0.00 | 0.00 | 0.00 | 14 | 1010.0 |
| 20260504233056 | 23 | 286 | 6.4 | 19.3 | 0.00 | 0.00 | 0.00 | 14 | 1010.0 |
| 20260504232534 | 23 | 283 | 6.4 | 20.9 | 0.00 | 0.00 | 0.00 | 13 | 1010.0 |
| 20260504232034 | 23 | 272 | 8.0 | 20.9 | 0.00 | 0.00 | 0.00 | 13 | 1010.1 |
| 20260504231548 | 23 | 276 | 6.4 | 19.3 | 0.00 | 0.00 | 0.00 | 13 | 1010.0 |
| 20260504231034 | 23 | 226 | 6.4 | 17.7 | 0.00 | 0.00 | 0.00 | 12 | 1010.0 |
| 20260504230532 | 24 | 297 | 6.4 | 17.7 | 0.00 | 0.00 | 0.00 | 12 | 1010.1 |
| 20260504230046 | 24 | 174 | 6.4 | 17.7 | 0.00 | 0.00 | 0.00 | 12 | 1010.0 |
| 20260504225535 | 24 | 272 | 6.4 | 20.9 | 0.00 | 0.00 | 0.00 | 12 | 1010.0 |
| 20260504225035 | 24 | 328 | 6.4 | 20.9 | 0.00 | 0.00 | 0.00 | 12 | 1010.1 |
| 20260504224545 | 24 | 261 | 9.7 | 20.9 | 0.00 | 0.00 | 0.00 | 12 | 1010.2 |
| 20260504224036 | 24 | 236 | 6.4 | 17.7 | 0.00 | 0.00 | 0.00 | 12 | 1010.2 |
| 20260504223535 | 24 | 241 | 8.0 | 17.7 | 0.00 | 0.00 | 0.00 | 12 | 1010.2 |
| 20260504223053 | 24 | 100 | 8.0 | 17.7 | 0.00 | 0.00 | 0.00 | 12 | 1010.2 |
| 20260504222534 | 24 | 204 | 6.4 | 19.3 | 0.00 | 0.00 | 0.00 | 11 | 1010.4 |
| 20260504222034 | 24 | 273 | 8.0 | 20.9 | 0.00 | 0.00 | 0.00 | 11 | 1010.5 |
| 20260504221547 | 24 | 280 | 8.0 | 20.9 | 0.00 | 0.00 | 0.00 | 12 | 1010.4 |
| 20260504221033 | 24 | 178 | 11.3 | 20.9 | 0.00 | 0.00 | 0.00 | 12 | 1010.5 |
| 20260504220534 | 25 | 266 | 6.4 | 24.1 | 0.00 | 0.00 | 0.00 | 11 | 1010.6 |
| 20260504220117 | 25 | 130 | 6.4 | 24.1 | 0.00 | 0.00 | 0.00 | 11 | 1010.7 |
| 20260504215534 | 25 | 236 | 6.4 | 24.1 | 0.00 | 0.00 | 0.00 | 12 | 1010.8 |
| 20260504215031 | 25 | 226 | 8.0 | 24.1 | 0.00 | 0.00 | 0.00 | 12 | 1010.8 |
| 20260504214547 | 25 | 155 | 11.3 | 22.5 | 0.00 | 0.00 | 0.00 | 11 | 1010.9 |
| 20260504214035 | 25 | 227 | 6.4 | 20.9 | 0.00 | 0.00 | 0.00 | 11 | 1010.9 |
| 20260504213534 | 25 | 219 | 9.7 | 22.5 | 0.00 | 0.00 | 0.00 | 11 | 1011.1 |
| 20260504213050 | 25 | 293 | 8.0 | 22.5 | 0.00 | 0.00 | 0.00 | 12 | 1011.1 |
| 20260504212534 | 25 | 241 | 6.4 | 22.5 | 0.00 | 0.00 | 0.00 | 12 | 1011.1 |
| 20260504212037 | 26 | 231 | 8.0 | 22.5 | 0.00 | 0.00 | 0.00 | 12 | 1011.2 |
| 20260504211548 | 26 | 190 | 6.4 | 20.9 | 0.00 | 0.00 | 0.00 | 12 | 1011.2 |
| 20260504211034 | 26 | 173 | 4.8 | 20.9 | 0.00 | 0.00 | 0.00 | 11 | 1011.2 |
| 20260504210534 | 26 | 179 | 4.8 | 16.1 | 0.00 | 0.00 | 0.00 | 12 | 1011.5 |
| 20260504210100 | 26 | 224 | 4.8 | 12.9 | 0.00 | 0.00 | 0.00 | 12 | 1011.7 |
| 20260504205534 | 25 | 324 | 4.8 | 14.5 | 0.00 | 0.00 | 0.00 | 14 | 1011.8 |
| 20260504205034 | 25 | 146 | 3.2 | 14.5 | 0.00 | 0.00 | 0.00 | 15 | 1012.1 |
| 20260504204557 | 25 | 314 | 6.4 | 17.7 | 0.00 | 0.00 | 0.00 | 15 | 1012.2 |
| 20260504204035 | 25 | 304 | 6.4 | 17.7 | 0.00 | 0.00 | 0.00 | 15 | 1012.4 |
| 20260504203533 | 24 | 238 | 4.8 | 17.7 | 0.00 | 0.00 | 0.00 | 16 | 1012.5 |
| 20260504203047 | 23 | 266 | 1.6 | 17.7 | 0.00 | 0.00 | 0.00 | 17 | 1012.5 |
| 20260504202536 | 23 | 283 | 6.4 | 17.7 | 0.00 | 0.00 | 0.00 | 17 | 1012.8 |
| 20260504202037 | 24 | 243 | 8.0 | 19.3 | 0.00 | 0.00 | 0.00 | 16 | 1012.8 |
| 20260504201548 | 24 | 304 | 6.4 | 20.9 | 0.00 | 0.00 | 0.00 | 17 | 1013.0 |
| 20260504201033 | 24 | 274 | 8.0 | 20.9 | 0.00 | 0.00 | 0.00 | 16 | 1013.0 |
| 20260504200539 | 24 | 250 | 4.8 | 12.9 | 0.00 | 0.00 | 0.00 | 16 | 1013.1 |
| 20260504200047 | 23 | 291 | 3.2 | 11.3 | 0.00 | 0.00 | 0.00 | 17 | 1013.0 |
| 20260504195534 | 23 | 300 | 4.8 | 14.5 | 0.00 | 0.00 | 0.00 | 17 | 1013.2 |
| 20260504195035 | 23 | 285 | 4.8 | 14.5 | 0.00 | 0.00 | 0.00 | 17 | 1013.2 |
| 20260504194544 | 23 | 210 | 4.8 | 12.9 | 0.00 | 0.00 | 0.00 | 17 | 1013.3 |
| 20260504194034 | 23 | 273 | 6.4 | 14.5 | 0.00 | 0.00 | 0.00 | 17 | 1013.3 |
| 20260504193535 | 23 | 207 | 6.4 | 14.5 | 0.00 | 0.00 | 0.00 | 18 | 1013.3 |
| 20260504193054 | 23 | 261 | 4.8 | 12.9 | 0.00 | 0.00 | 0.00 | 17 | 1013.5 |
| 20260504192535 | 23 | 114 | 3.2 | 19.3 | 0.00 | 0.00 | 0.00 | 17 | 1013.5 |
| 20260504192034 | 23 | 281 | 8.0 | 19.3 | 0.00 | 0.00 | 0.00 | 18 | 1013.5 |
| 20260504191542 | 23 | 132 | 4.8 | 14.5 | 0.00 | 0.00 | 0.00 | 18 | 1013.5 |
| 20260504191036 | 23 | 122 | 4.8 | 14.5 | 0.00 | 0.00 | 0.00 | 19 | 1013.5 |
| 20260504190534 | 23 | 275 | 4.8 | 14.5 | 0.00 | 0.00 | 0.00 | 19 | 1013.6 |
| 20260504190046 | 23 | 212 | 4.8 | 16.1 | 0.00 | 0.00 | 0.00 | 19 | 1013.7 |
| 20260504185534 | 22 | 238 | 6.4 | 16.1 | 0.00 | 0.00 | 0.00 | 20 | 1014.1 |
| 20260504185034 | 22 | 256 | 6.4 | 14.5 | 0.00 | 0.00 | 0.00 | 18 | 1014.0 |
| 20260504184550 | 22 | 296 | 6.4 | 14.5 | 0.00 | 0.00 | 0.00 | 19 | 1014.3 |
| 20260504184035 | 22 | 229 | 4.8 | 16.1 | 0.00 | 0.00 | 0.00 | 20 | 1014.5 |
| 20260504183535 | 22 | 184 | 6.4 | 16.1 | 0.00 | 0.00 | 0.00 | 19 | 1014.5 |
| 20260504183043 | 23 | 281 | 3.2 | 14.5 | 0.00 | 0.00 | 0.00 | 20 | 1014.4 |
| 20260504182538 | 22 | 202 | 6.4 | 14.5 | 0.00 | 0.00 | 0.00 | 21 | 1014.5 |
| 20260504182034 | 22 | 229 | 4.8 | 12.9 | 0.00 | 0.00 | 0.00 | 21 | 1014.6 |
| 20260504181555 | 22 | 261 | 6.4 | 16.1 | 0.00 | 0.00 | 0.00 | 21 | 1014.7 |
| 20260504181035 | 22 | 276 | 6.4 | 20.9 | 0.00 | 0.00 | 0.00 | 21 | 1014.7 |
| 20260504180540 | 22 | 280 | 3.2 | 20.9 | 0.00 | 0.00 | 0.00 | 21 | 1014.7 |
| 20260504180053 | 22 | 258 | 8.0 | 20.9 | 0.00 | 0.00 | 0.00 | 20 | 1014.8 |
| 20260504175539 | 22 | 254 | 8.0 | 16.1 | 0.00 | 0.00 | 0.00 | 18 | 1014.8 |
| 20260504175035 | 22 | 240 | 3.2 | 9.7 | 0.00 | 0.00 | 0.00 | 19 | 1014.7 |
| 20260504174548 | 22 | 180 | 4.8 | 9.7 | 0.00 | 0.00 | 0.00 | 20 | 1014.7 |
| 20260504174035 | 21 | 291 | 3.2 | 9.7 | 0.00 | 0.00 | 0.00 | 20 | 1014.9 |
| 20260504173538 | 21 | 250 | 3.2 | 11.3 | 0.00 | 0.00 | 0.00 | 21 | 1015.0 |
| 20260504173045 | 21 | 290 | 4.8 | 11.3 | 0.00 | 0.00 | 0.00 | 22 | 1015.0 |
| 20260504172534 | 21 | 224 | 3.2 | 14.5 | 0.00 | 0.00 | 0.00 | 22 | 1015.1 |
| 20260504172035 | 21 | 305 | 6.4 | 14.5 | 0.00 | 0.00 | 0.00 | 21 | 1015.3 |